Terminal Aerodrome Forecast
Issued by NWS Pocatello, ID

Home | Current Version | Previous Version | Text Only | Print | Product List | Glossary On
Versions: 1 2 3 4 5 6 7 8 9 10 11 12 13 14 15 16 17 18
000
FTUS45 KPIH 231739
TAFPIH
TAF
KPIH 231739Z 2318/2418 25011KT 2SM -SN BR BKN010 OVC015
     FM232100 24014KT P6SM SCT015 SCT040
     FM240300 21014KT P6SM SCT040 SCT080
     FM241100 21015KT P6SM VCSH BKN030 OVC060
     FM241600 21015G25KT 6SM -SHSN BKN020 OVC040=

USA.gov is the U.S. government's official web portal to all federal, state and local government web resources and services.